地図

経路データ

SID SEASON NUMBER BASIN SUBBASIN NAME ISO_TIME NATURE LAT LON WMO_WIND WMO_PRES WMO_AGENCY TRACK_TYPE DIST2LAND LANDFALL IFLAG USA_AGENCY USA_ATCF_ID USA_LAT USA_LON USA_RECORD USA_STATUS USA_WIND USA_PRES USA_SSHS USA_R34_NE USA_R34_SE USA_R34_SW USA_R34_NW USA_R50_NE USA_R50_SE USA_R50_SW USA_R50_NW USA_R64_NE USA_R64_SE USA_R64_SW USA_R64_NW USA_POCI USA_ROCI USA_RMW USA_EYE TOKYO_LAT TOKYO_LON TOKYO_GRADE TOKYO_WIND TOKYO_PRES TOKYO_R50_DIR TOKYO_R50_LONG TOKYO_R50_SHORT TOKYO_R30_DIR TOKYO_R30_LONG TOKYO_R30_SHORT TOKYO_LAND CMA_LAT CMA_LON CMA_CAT CMA_WIND CMA_PRES HKO_LAT HKO_LON HKO_CAT HKO_WIND HKO_PRES NEWDELHI_LAT NEWDELHI_LON NEWDELHI_GRADE NEWDELHI_WIND NEWDELHI_PRES NEWDELHI_CI NEWDELHI_DP NEWDELHI_POCI REUNION_LAT REUNION_LON REUNION_TYPE REUNION_WIND REUNION_PRES REUNION_TNUM REUNION_CI REUNION_RMW REUNION_R34_NE REUNION_R34_SE REUNION_R34_SW REUNION_R34_NW REUNION_R50_NE REUNION_R50_SE REUNION_R50_SW REUNION_R50_NW REUNION_R64_NE REUNION_R64_SE REUNION_R64_SW REUNION_R64_NW BOM_LAT BOM_LON BOM_TYPE BOM_WIND BOM_PRES BOM_TNUM BOM_CI BOM_RMW BOM_R34_NE BOM_R34_SE BOM_R34_SW BOM_R34_NW BOM_R50_NE BOM_R50_SE BOM_R50_SW BOM_R50_NW BOM_R64_NE BOM_R64_SE BOM_R64_SW BOM_R64_NW BOM_ROCI BOM_POCI BOM_EYE BOM_POS_METHOD BOM_PRES_METHOD NADI_LAT NADI_LON NADI_CAT NADI_WIND NADI_PRES WELLINGTON_LAT WELLINGTON_LON WELLINGTON_WIND WELLINGTON_PRES DS824_LAT DS824_LON DS824_STAGE DS824_WIND DS824_PRES TD9636_LAT TD9636_LON TD9636_STAGE TD9636_WIND TD9636_PRES TD9635_LAT TD9635_LON TD9635_WIND TD9635_PRES TD9635_ROCI NEUMANN_LAT NEUMANN_LON NEUMANN_CLASS NEUMANN_WIND NEUMANN_PRES MLC_LAT MLC_LON MLC_CLASS MLC_WIND MLC_PRES USA_GUST BOM_GUST BOM_GUST_PER REUNION_GUST REUNION_GUST_PER USA_SEAHGT USA_SEARAD_NE USA_SEARAD_SE USA_SEARAD_SW USA_SEARAD_NW STORM_SPEED STORM_DIR
1903163N14072 1903 26 NI AS NOT_NAMED 1903-06-12 00:00:00 TS 13.5000 71.9000 main 278 266 _________O____ -1 13.5000 71.9000 TC 64 5 0
1903163N14072 1903 26 NI AS NOT_NAMED 1903-06-12 03:00:00 TS 13.7317 71.9050 main 266 248 _________PO___ -1 13.8475 71.9075 TC 64 13.5000 71.9000 4 6 0
1903163N14072 1903 26 NI AS NOT_NAMED 1903-06-12 06:00:00 TS 14.0644 71.8993 main 242 228 _________OP___ -1 14.2000 71.9000 TC 64 13.8609 71.8983 4 7 358
1903163N14072 1903 26 NI AS NOT_NAMED 1903-06-12 09:00:00 TS 14.4118 71.8746 main 228 222 _________PP___ -1 14.5575 71.8650 TC 64 14.2175 71.8874 4 7 354
1903163N14072 1903 26 NI AS NOT_NAMED 1903-06-12 12:00:00 TS 14.7327 71.8289 main 227 214 _________OP___ -1 14.9000 71.8000 TC 64 14.5653 71.8577 4 7 350
1903163N14072 1903 26 NI AS NOT_NAMED 1903-06-12 15:00:00 TS 15.0537 71.7575 main 211 211 _________PO___ -1 15.2075 71.7150 TC 64 14.9000 71.8000 4 7 345
1903163N14072 1903 26 NI AS NOT_NAMED 1903-06-12 18:00:00 TS 15.3592 71.6539 main 208 207 _________OP___ -1 15.5000 71.6000 TC 64 15.2184 71.7079 4 7 339
1903163N14072 1903 26 NI AS NOT_NAMED 1903-06-12 21:00:00 TS 15.6613 71.5225 main 212 207 _________PP___ -1 15.8000 71.4575 TC 64 15.5225 71.5875 4 7 336
1903163N14072 1903 26 NI AS NOT_NAMED 1903-06-13 00:00:00 TS 15.9577 71.3742 main 210 210 _________OP___ -1 16.1000 71.3000 TC 64 15.8153 71.4484 4 7 334
1903163N14072 1903 26 NI AS NOT_NAMED 1903-06-13 03:00:00 TS 16.2537 71.2250 main 225 224 _________PO___ -1 16.4075 71.1500 TC 64 16.1000 71.3000 4 7 334
1903163N14072 1903 26 NI AS NOT_NAMED 1903-06-13 06:00:00 TS 16.5411 71.0806 main 234 234 _________OP___ -1 16.7000 71.0000 TC 64 16.3822 71.1611 4 6 333
1903163N14072 1903 26 NI AS NOT_NAMED 1903-06-13 09:00:00 TS 16.8037 70.9324 main 250 246 _________PP___ -1 16.9500 70.8499 TC 64 16.6574 71.0148 4 6 331
1903163N14072 1903 26 NI AS NOT_NAMED 1903-06-13 12:00:00 TS 17.0645 70.7805 main 250 250 _________OP___ -1 17.2000 70.7000 TC 64 16.9290 70.8611 4 6 332
1903163N14072 1903 26 NI AS NOT_NAMED 1903-06-13 15:00:00 TS 17.3500 70.6287 main 263 255 _________PO___ -1 17.5000 70.5574 TC 64 17.2000 70.7000 4 6 333
1903163N14072 1903 26 NI AS NOT_NAMED 1903-06-13 18:00:00 TS 17.6354 70.4720 main 262 260 _________OP___ -1 17.8000 70.4000 TC 64 17.4708 70.5441 4 6 330
1903163N14072 1903 26 NI AS NOT_NAMED 1903-06-13 21:00:00 TS 17.8962 70.2972 main 276 275 _________PP___ -1 18.0500 70.2149 TC 64 17.7423 70.3796 4 6 326
1903163N14072 1903 26 NI AS NOT_NAMED 1903-06-14 00:00:00 TS 18.1588 70.1001 main 289 274 _________OP___ -1 18.3000 70.0000 TC 64 18.0177 70.2003 4 7 324
1903163N14072 1903 26 NI AS NOT_NAMED 1903-06-14 03:00:00 TS 18.4462 69.8787 main 274 251 _________PO___ -1 18.5925 69.7575 TC 64 18.3000 70.0000 4 7 323
1903163N14072 1903 26 NI AS NOT_NAMED 1903-06-14 06:00:00 TS 18.7444 69.6357 main 256 233 _________OP___ -1 18.9000 69.5000 TC 64 18.5888 69.7715 4 8 322
1903163N14072 1903 26 NI AS NOT_NAMED 1903-06-14 09:00:00 TS 19.0425 69.3861 main 239 224 _________PP___ -1 19.2000 69.2499 TC 64 18.8850 69.5223 4 8 322
1903163N14072 1903 26 NI AS NOT_NAMED 1903-06-14 12:00:00 TS 19.3444 69.1310 main 231 215 _________OP___ -1 19.5000 69.0000 TC 64 19.1888 69.2620 4 8 321
1903163N14072 1903 26 NI AS NOT_NAMED 1903-06-14 15:00:00 TS 19.6462 68.8749 main 215 205 _________PO___ -1 19.7925 68.7499 TC 64 19.5000 69.0000 4 8 323
1903163N14072 1903 26 NI AS NOT_NAMED 1903-06-14 18:00:00 TS 19.9669 68.6350 main 205 197 _________OP___ -1 20.1000 68.5000 TC 64 19.8337 68.7700 4 8 326
1903163N14072 1903 26 NI AS NOT_NAMED 1903-06-14 21:00:00 TS 20.3109 68.4010 main 197 190 _________PP___ -1 20.4499 68.2649 TC 64 20.1720 68.5371 4 8 326
1903163N14072 1903 26 NI AS NOT_NAMED 1903-06-15 00:00:00 TS 20.6496 68.1428 main 197 187 _________OP___ -1 20.8000 68.0000 TC 64 20.4993 68.2856 4 8 321
1903163N14072 1903 26 NI AS NOT_NAMED 1903-06-15 03:00:00 TS 20.9650 67.8363 main 184 182 _________PO___ -1 21.1300 67.6725 TC 64 20.8000 68.0000 4 8 314
1903163N14072 1903 26 NI AS NOT_NAMED 1903-06-15 06:00:00 TS 21.2347 67.4986 main 189 182 _________OP___ -1 21.4000 67.3000 TC 64 21.0694 67.6971 4 8 306
1903163N14072 1903 26 NI AS NOT_NAMED 1903-06-15 09:00:00 TS 21.4406 67.1459 main 211 206 _________PP___ -1 21.5722 66.9372 TC 64 21.3090 67.3545 4 8 298
1903163N14072 1903 26 NI AS NOT_NAMED 1903-06-15 12:00:00 TS 21.6096 66.7298 main 239 239 _________OP___ -1 21.7000 66.5000 TC 64 21.5191 66.9596 4 9 291
1903163N14072 1903 26 NI AS NOT_NAMED 1903-06-15 15:00:00 TS 21.7788 66.2150 main 265 265 _________PO___ -1 21.8576 65.9301 TC 64 21.7000 66.5000 4 11 288
1903163N14072 1903 26 NI AS NOT_NAMED 1903-06-15 18:00:00 TS 21.9377 65.6102 main 295 294 _________OP___ -1 22.0000 65.3000 TC 64 21.8754 65.9203 4 12 284
1903163N14072 1903 26 NI AS NOT_NAMED 1903-06-15 21:00:00 TS 22.0710 64.9740 main 324 324 _________PP___ -1 22.1226 64.6625 TC 64 22.0194 65.2855 4 12 281
1903163N14072 1903 26 NI AS NOT_NAMED 1903-06-16 00:00:00 TS 22.1643 64.3789 main 335 335 _________OP___ -1 22.2000 64.1000 TC 64 22.1285 64.6578 4 10 278
1903163N14072 1903 26 NI AS NOT_NAMED 1903-06-16 03:00:00 TS 22.2073 63.9024 main 337 335 _________PO___ -1 22.2147 63.7048 TC 64 22.2000 64.1000 4 8 274
1903163N14072 1903 26 NI AS NOT_NAMED 1903-06-16 06:00:00 TS 22.2194 63.5436 main 335 334 _________OP___ -1 22.2000 63.4000 TC 64 22.2388 63.6872 4 6 271
1903163N14072 1903 26 NI AS NOT_NAMED 1903-06-16 09:00:00 TS 22.2218 63.2222 main 334 319 _________PP___ -1 22.1999 63.0925 TC 64 22.2436 63.3519 4 6 269
1903163N14072 1903 26 NI AS NOT_NAMED 1903-06-16 12:00:00 TS 22.2133 62.9328 main 319 298 _________OP___ -1 22.2000 62.8000 TC 64 22.2267 63.0656 4 5 268
1903163N14072 1903 26 NI AS NOT_NAMED 1903-06-16 15:00:00 TS 22.2037 62.6463 main 288 267 _________PO___ -1 22.2075 62.4925 TC 55 22.2000 62.8000 4 5 267
1903163N14072 1903 26 NI AS NOT_NAMED 1903-06-16 18:00:00 TS 22.1848 62.3896 main 267 236 _________OP___ -1 22.2000 62.2000 TC 47 22.1734 62.5317 4 5 264
1903163N14072 1903 26 NI AS NOT_NAMED 1903-06-16 21:00:00 TS 22.1530 62.1306 main 236 216 _________PP___ -1 22.1600 61.9399 TC 38 22.1484 62.2577 4 5 262
1903163N14072 1903 26 NI AS NOT_NAMED 1903-06-17 00:00:00 TS 22.1161 61.8865 main 216 195 _________OP___ -1 22.1000 61.7000 TC 30 22.1241 61.9798 4 4 262
1903163N14072 1903 26 NI AS NOT_NAMED 1903-06-17 03:00:00 NR 22.1000 61.7000 main 195 __________O___ -1 TC 22.1000 61.7000 1 3 265

IBTrACS Databaseについて

本データベースは、米国NOAAが公開する1842年以降の世界の熱帯低気圧のベストトラックデータアーカイブInternational Best Track Archive for Climate Stewardship (IBTrACS)を、ウェブで閲覧しやすい形式に変換したものです。

最終更新日:2021-12-03